createdAt,value
2023-05-16T00:03:03.487Z,93.90
2023-05-16T00:06:06.097Z,94.00
2023-05-16T00:09:08.355Z,94.10
2023-05-16T00:12:11.464Z,94.10
2023-05-16T00:15:14.181Z,93.90
2023-05-16T00:18:17.014Z,94.00
2023-05-16T00:21:20.018Z,93.90
2023-05-16T00:24:23.998Z,94.00
2023-05-16T00:27:26.272Z,93.90
2023-05-16T00:30:30.605Z,93.70
2023-05-16T00:33:35.073Z,93.80
2023-05-16T00:36:37.465Z,93.80
2023-05-16T00:39:39.718Z,93.70
2023-05-16T00:42:41.860Z,93.60
2023-05-16T00:45:44.574Z,93.60
2023-05-16T00:48:46.800Z,93.40
2023-05-16T00:51:49.215Z,93.50
2023-05-16T00:54:52.056Z,93.70
2023-05-16T00:57:54.198Z,93.70
2023-05-16T01:00:59.200Z,93.60
2023-05-16T01:04:01.863Z,93.50
2023-05-16T01:07:04.173Z,93.60
2023-05-16T01:10:07.529Z,93.90
2023-05-16T01:13:45.913Z,93.90
2023-05-16T01:17:06.712Z,93.90
2023-05-16T01:20:25.932Z,93.70
2023-05-16T01:23:47.055Z,93.80
2023-05-16T01:26:51.821Z,93.90
2023-05-16T01:29:57.053Z,93.60
2023-05-16T01:32:59.507Z,93.80
2023-05-16T01:36:11.905Z,93.70
2023-05-16T01:39:42.548Z,93.70
2023-05-16T01:42:47.450Z,93.50
2023-05-16T01:45:56.059Z,93.60
2023-05-16T01:49:13.354Z,93.60
2023-05-16T01:52:42.953Z,93.50
2023-05-16T01:55:58.395Z,93.50
2023-05-16T01:59:02.386Z,93.60
2023-05-16T02:02:04.709Z,93.70
2023-05-16T02:05:07.233Z,93.80
2023-05-16T02:08:09.801Z,93.70
2023-05-16T02:11:12.138Z,93.80
2023-05-16T02:14:14.300Z,93.90
2023-05-16T02:17:16.429Z,94.30
2023-05-16T02:20:18.487Z,94.20
2023-05-16T02:23:20.704Z,94.30
2023-05-16T02:26:23.506Z,94.50
2023-05-16T02:29:25.585Z,94.60
2023-05-16T02:32:28.135Z,94.40
2023-05-16T02:35:30.342Z,94.50
2023-05-16T02:38:32.396Z,94.60
2023-05-16T02:41:34.785Z,94.70
2023-05-16T02:44:36.865Z,94.70
2023-05-16T02:47:38.989Z,95.10
2023-05-16T02:50:42.540Z,94.80
2023-05-16T02:53:44.708Z,94.80
2023-05-16T02:56:46.807Z,94.60
2023-05-16T02:59:49.065Z,94.70
2023-05-16T03:02:51.189Z,95.10
2023-05-16T03:05:53.420Z,95.00
2023-05-16T03:08:55.472Z,95.10
2023-05-16T03:11:57.702Z,95.30
2023-05-16T03:15:02.021Z,95.30
2023-05-16T03:18:04.443Z,95.10
2023-05-16T03:21:06.549Z,94.80
2023-05-16T03:24:10.006Z,95.00
2023-05-16T03:27:13.120Z,95.00
2023-05-16T03:30:16.449Z,95.00
2023-05-16T03:33:24.509Z,95.00
2023-05-16T03:36:27.824Z,95.20
2023-05-16T03:39:30.139Z,95.50
2023-05-16T03:42:35.119Z,95.60
2023-05-16T03:45:37.191Z,95.80
2023-05-16T03:48:39.308Z,95.60
2023-05-16T03:51:42.320Z,95.70
2023-05-16T03:54:44.595Z,95.60
2023-05-16T03:57:47.955Z,95.80
2023-05-16T04:00:50.088Z,95.80
2023-05-16T04:03:52.162Z,95.80
2023-05-16T04:06:54.276Z,95.80
2023-05-16T04:09:58.840Z,96.10
2023-05-16T04:13:02.652Z,96.10
2023-05-16T04:16:05.127Z,96.20
2023-05-16T04:19:08.495Z,96.50
2023-05-16T04:22:10.681Z,96.40
2023-05-16T04:25:13.434Z,96.90
2023-05-16T04:28:16.792Z,96.70
2023-05-16T04:31:18.945Z,96.60
2023-05-16T04:34:23.238Z,96.60
2023-05-16T04:37:25.308Z,96.80
2023-05-16T04:40:27.925Z,96.90
2023-05-16T04:43:30.582Z,97.00
2023-05-16T04:46:32.636Z,97.00
2023-05-16T04:49:35.776Z,97.20
2023-05-16T04:52:38.498Z,97.00
2023-05-16T04:55:41.757Z,97.00
2023-05-16T04:58:43.887Z,97.00
2023-05-16T05:01:46.013Z,96.90
2023-05-16T05:04:48.613Z,96.80
2023-05-16T05:07:50.909Z,96.90
2023-05-16T05:10:53.554Z,96.80
2023-05-16T05:13:55.843Z,96.90
2023-05-16T05:16:58.063Z,97.00
2023-05-16T05:20:02.688Z,96.70
2023-05-16T05:23:05.533Z,97.00
2023-05-16T05:26:07.688Z,97.10
2023-05-16T05:29:09.856Z,97.10
2023-05-16T05:32:12.623Z,97.00
2023-05-16T05:35:15.737Z,96.90
2023-05-16T05:38:17.898Z,96.70
2023-05-16T05:41:20.244Z,96.80
2023-05-16T05:44:22.595Z,96.80
2023-05-16T05:47:25.062Z,96.80
2023-05-16T05:50:27.543Z,96.80
2023-05-16T05:53:29.822Z,96.70
2023-05-16T05:56:32.115Z,96.60
2023-05-16T05:59:34.303Z,95.90
2023-05-16T06:02:37.092Z,95.60
2023-05-16T06:05:39.592Z,95.50
2023-05-16T06:08:41.880Z,95.20
2023-05-16T06:11:45.990Z,94.70
2023-05-16T06:14:48.190Z,94.40
2023-05-16T06:17:50.674Z,94.10
2023-05-16T06:20:53.497Z,94.00
2023-05-16T06:23:55.840Z,94.00
2023-05-16T06:26:58.304Z,93.80
2023-05-16T06:30:00.345Z,93.50
2023-05-16T06:33:02.663Z,93.50
2023-05-16T06:36:05.172Z,93.00
2023-05-16T06:39:07.861Z,92.90
2023-05-16T06:42:11.166Z,92.30
2023-05-16T06:45:13.475Z,92.30
2023-05-16T06:48:16.241Z,92.30
2023-05-16T06:51:18.431Z,91.90
2023-05-16T06:54:20.890Z,91.70
2023-05-16T06:57:24.056Z,91.20
2023-05-16T07:00:27.213Z,90.70
2023-05-16T07:03:29.771Z,90.80
2023-05-16T07:06:32.123Z,89.00
2023-05-16T07:09:34.468Z,89.30
2023-05-16T07:12:40.054Z,90.20
2023-05-16T07:15:42.208Z,89.50
2023-05-16T07:18:44.497Z,86.90
2023-05-16T07:21:47.009Z,83.20
2023-05-16T07:24:49.286Z,80.20
2023-05-16T07:27:51.496Z,78.30
2023-05-16T07:30:54.811Z,75.70
2023-05-16T07:33:57.560Z,75.60
2023-05-16T07:36:59.855Z,73.80
2023-05-16T07:40:02.906Z,72.60
2023-05-16T07:43:05.224Z,71.10
2023-05-16T07:46:07.781Z,68.50
2023-05-16T07:49:09.987Z,68.20
2023-05-16T07:52:12.426Z,67.90
2023-05-16T07:55:15.079Z,66.80
2023-05-16T07:58:17.326Z,65.60
2023-05-16T08:01:20.692Z,64.20
2023-05-16T08:04:22.891Z,63.90
2023-05-16T08:07:25.049Z,63.40
2023-05-16T08:10:27.643Z,62.70
2023-05-16T08:13:29.973Z,62.00
2023-05-16T08:16:32.846Z,61.80
2023-05-16T08:19:35.766Z,60.20
2023-05-16T08:22:37.884Z,61.00
2023-05-16T08:25:40.481Z,56.80
2023-05-16T08:28:43.402Z,57.90
2023-05-16T08:31:45.880Z,58.10
2023-05-16T08:34:48.291Z,59.10
2023-05-16T08:37:50.693Z,60.50
2023-05-16T08:40:52.789Z,61.10
2023-05-16T08:43:55.093Z,61.60
2023-05-16T08:46:57.935Z,62.60
2023-05-16T08:50:02.902Z,62.30
2023-05-16T08:53:09.904Z,61.10
2023-05-16T08:56:14.830Z,59.00
2023-05-16T08:59:17.789Z,56.10
2023-05-16T09:02:21.774Z,54.60
2023-05-16T09:05:24.396Z,53.30
2023-05-16T09:08:26.834Z,52.10
2023-05-16T09:11:29.522Z,51.10
2023-05-16T09:14:31.749Z,49.30
2023-05-16T09:17:43.128Z,49.30
2023-05-16T09:20:50.269Z,50.70
2023-05-16T09:24:06.191Z,51.40
2023-05-16T09:27:13.954Z,51.40
2023-05-16T09:30:19.359Z,52.00
2023-05-16T09:33:27.054Z,50.10
2023-05-16T09:36:29.412Z,50.40
2023-05-16T09:39:31.616Z,49.80
2023-05-16T09:42:34.234Z,49.70
2023-05-16T09:45:47.863Z,49.10
2023-05-16T09:48:52.068Z,48.20
2023-05-16T09:51:54.405Z,46.90
2023-05-16T09:54:56.522Z,46.80
2023-05-16T09:57:58.672Z,44.60
2023-05-16T10:01:01.545Z,45.50
2023-05-16T10:04:03.806Z,45.30
2023-05-16T10:07:10.067Z,46.10
2023-05-16T10:10:14.067Z,44.20
2023-05-16T10:13:29.076Z,45.60
2023-05-16T10:16:31.866Z,45.80
2023-05-16T10:19:38.899Z,44.10
2023-05-16T10:22:44.045Z,44.90
2023-05-16T10:25:49.145Z,44.90
2023-05-16T10:28:54.808Z,45.30
2023-05-16T10:31:58.383Z,46.50
2023-05-16T10:35:03.274Z,44.80
2023-05-16T10:38:08.076Z,45.10
2023-05-16T10:41:11.362Z,45.60
2023-05-16T10:44:16.237Z,45.70
2023-05-16T10:47:21.933Z,45.70
2023-05-16T10:50:57.458Z,47.50
2023-05-16T10:54:05.160Z,48.40
2023-05-16T10:57:24.067Z,49.30
2023-05-16T11:00:26.286Z,50.10
2023-05-16T11:03:29.205Z,48.40
2023-05-16T11:06:43.984Z,47.10
2023-05-16T11:09:46.908Z,45.60
2023-05-16T11:12:50.794Z,44.70
2023-05-16T11:16:29.006Z,43.60
2023-05-16T11:19:36.194Z,42.70
2023-05-16T11:22:41.544Z,41.00
2023-05-16T11:25:46.192Z,41.60
2023-05-16T11:28:50.825Z,46.10
2023-05-16T11:31:53.625Z,47.60
2023-05-16T11:34:56.735Z,46.20
2023-05-16T11:37:58.813Z,49.10
2023-05-16T11:41:08.193Z,49.30
2023-05-16T11:44:12.699Z,50.40
2023-05-16T11:47:15.033Z,48.60
2023-05-16T11:50:20.118Z,48.70
2023-05-16T11:53:22.690Z,48.40
2023-05-16T11:56:25.840Z,49.30
2023-05-16T11:59:28.340Z,49.40
2023-05-16T12:02:30.622Z,49.40
2023-05-16T12:05:34.231Z,47.10
2023-05-16T12:08:37.065Z,49.80
2023-05-16T12:11:44.118Z,48.90
2023-05-16T12:14:46.619Z,49.90
2023-05-16T12:17:49.239Z,46.90
2023-05-16T12:20:52.495Z,46.80
2023-05-16T12:23:57.983Z,46.30
2023-05-16T12:27:00.195Z,48.20
2023-05-16T12:30:02.416Z,46.30
2023-05-16T12:33:13.587Z,46.80
2023-05-16T12:36:17.305Z,46.90
2023-05-16T12:39:20.526Z,43.90
2023-05-16T12:42:22.649Z,42.20
2023-05-16T12:45:27.978Z,43.70
2023-05-16T12:48:37.210Z,43.20
2023-05-16T12:51:41.161Z,42.40
2023-05-16T12:54:43.405Z,41.60
2023-05-16T12:57:48.010Z,40.60
2023-05-16T13:00:50.266Z,40.60
2023-05-16T13:03:52.498Z,40.40
2023-05-16T13:06:59.203Z,41.80
2023-05-16T13:10:02.195Z,42.70
2023-05-16T13:13:04.697Z,41.30
2023-05-16T13:16:07.160Z,42.20
2023-05-16T13:19:09.526Z,42.30
2023-05-16T13:22:11.944Z,41.20
2023-05-16T13:25:18.014Z,40.30
2023-05-16T13:28:20.291Z,40.00
2023-05-16T13:31:22.884Z,41.70
2023-05-16T13:34:25.427Z,40.00
2023-05-16T13:37:27.659Z,40.20
2023-05-16T13:40:30.109Z,41.20
2023-05-16T13:43:32.391Z,41.40
2023-05-16T13:46:35.190Z,41.90
2023-05-16T13:49:37.957Z,44.20
2023-05-16T13:52:40.585Z,41.70
2023-05-16T13:55:42.969Z,41.90
2023-05-16T13:58:59.740Z,41.50
2023-05-16T14:02:06.253Z,41.50
2023-05-16T14:05:09.669Z,41.30
2023-05-16T14:08:11.849Z,41.40
2023-05-16T14:11:14.119Z,40.10
2023-05-16T14:14:17.468Z,39.40
2023-05-16T14:17:20.800Z,39.70
2023-05-16T14:20:23.183Z,39.70
2023-05-16T14:23:25.520Z,39.30
2023-05-16T14:26:27.701Z,40.10
2023-05-16T14:29:30.430Z,39.70
2023-05-16T14:32:33.696Z,38.80
2023-05-16T14:35:38.495Z,39.40
2023-05-16T14:38:41.868Z,39.50
2023-05-16T14:41:44.411Z,40.00
2023-05-16T14:44:46.891Z,55.00
2023-05-16T14:47:49.295Z,56.80
2023-05-16T14:50:52.153Z,56.30
2023-05-16T14:53:54.788Z,55.60
2023-05-16T14:56:57.005Z,55.50
2023-05-16T14:59:59.200Z,55.40
2023-05-16T15:03:01.517Z,55.90
2023-05-16T15:06:07.832Z,55.70
2023-05-16T15:09:10.101Z,55.80
2023-05-16T15:12:12.493Z,55.30
2023-05-16T15:15:16.600Z,55.20
2023-05-16T15:18:18.986Z,55.40
2023-05-16T15:21:21.205Z,56.30
2023-05-16T15:24:23.349Z,55.60
2023-05-16T15:27:26.273Z,55.40
2023-05-16T15:30:29.713Z,55.00
2023-05-16T15:33:32.752Z,55.30
2023-05-16T15:36:35.303Z,55.70
2023-05-16T15:39:37.701Z,54.00
2023-05-16T15:42:42.458Z,54.20
2023-05-16T15:45:45.575Z,53.70
2023-05-16T15:48:47.800Z,54.10
2023-05-16T15:51:55.232Z,54.10
2023-05-16T15:54:57.621Z,55.00
2023-05-16T15:57:59.833Z,55.50
2023-05-16T16:01:03.318Z,55.20
2023-05-16T16:04:05.827Z,55.80
2023-05-16T16:07:08.231Z,55.60
2023-05-16T16:10:12.806Z,55.70
2023-05-16T16:13:14.996Z,56.10
2023-05-16T16:16:18.248Z,55.80
2023-05-16T16:19:20.503Z,56.30
2023-05-16T16:22:23.126Z,56.10
2023-05-16T16:25:25.874Z,56.60
2023-05-16T16:28:28.930Z,58.00
2023-05-16T16:31:31.104Z,59.10
2023-05-16T16:34:35.295Z,57.40
2023-05-16T16:37:37.569Z,57.30
2023-05-16T16:40:40.189Z,57.70
2023-05-16T16:43:42.376Z,58.00
2023-05-16T16:46:44.850Z,57.90
2023-05-16T16:49:46.936Z,58.10
2023-05-16T16:52:49.157Z,56.90
2023-05-16T16:55:52.026Z,57.30
2023-05-16T16:58:54.918Z,57.80
2023-05-16T17:01:57.226Z,57.40
2023-05-16T17:05:00.706Z,57.40
2023-05-16T17:08:03.156Z,57.90
2023-05-16T17:11:05.952Z,57.70
2023-05-16T17:14:10.769Z,58.00
2023-05-16T17:17:15.570Z,58.70
2023-05-16T17:20:17.708Z,59.60
2023-05-16T17:23:20.367Z,59.90
2023-05-16T17:26:22.918Z,59.10
2023-05-16T17:29:25.156Z,59.50
2023-05-16T17:32:27.526Z,59.10
2023-05-16T17:35:30.188Z,59.10
2023-05-16T17:38:32.821Z,59.30
2023-05-16T17:41:35.593Z,59.60
2023-05-16T17:44:38.068Z,59.70
2023-05-16T17:47:40.942Z,60.00
2023-05-16T17:50:43.729Z,59.80
2023-05-16T17:53:47.174Z,60.90
2023-05-16T17:56:51.029Z,61.00
2023-05-16T17:59:53.467Z,60.80
2023-05-16T18:02:56.053Z,60.90
2023-05-16T18:05:58.418Z,60.90
2023-05-16T18:09:01.473Z,60.90
2023-05-16T18:12:03.868Z,61.00
2023-05-16T18:15:07.707Z,61.30
2023-05-16T18:18:10.421Z,61.40
2023-05-16T18:21:12.706Z,61.80
2023-05-16T18:24:16.144Z,61.90
2023-05-16T18:27:18.301Z,61.60
2023-05-16T18:30:21.081Z,61.50
2023-05-16T18:33:23.563Z,61.30
2023-05-16T18:36:25.918Z,61.90
2023-05-16T18:39:28.143Z,62.20
2023-05-16T18:42:30.555Z,62.10
2023-05-16T18:45:33.778Z,62.70
2023-05-16T18:48:36.257Z,61.80
2023-05-16T18:51:38.929Z,62.10
2023-05-16T18:54:41.177Z,62.60
2023-05-16T18:57:44.154Z,63.90
2023-05-16T19:00:47.145Z,64.50
2023-05-16T19:03:49.905Z,64.70
2023-05-16T19:06:56.277Z,64.80
2023-05-16T19:09:59.702Z,65.20
2023-05-16T19:13:07.083Z,65.40
2023-05-16T19:16:09.354Z,65.70
2023-05-16T19:19:11.539Z,65.60
2023-05-16T19:22:13.655Z,66.00
2023-05-16T19:25:16.081Z,66.30
2023-05-16T19:28:18.342Z,66.20
2023-05-16T19:31:21.135Z,66.50
2023-05-16T19:37:28.792Z,66.40
2023-05-16T19:40:32.626Z,66.70
2023-05-16T19:43:35.026Z,66.90
2023-05-16T19:46:38.456Z,67.20
2023-05-16T19:49:41.214Z,67.30
2023-05-16T19:52:43.696Z,67.50
2023-05-16T19:55:48.025Z,67.80
2023-05-16T19:58:50.181Z,68.20
2023-05-16T20:01:52.529Z,68.50
2023-05-16T20:04:54.884Z,69.30
2023-05-16T20:07:57.276Z,69.50
2023-05-16T20:10:59.844Z,70.00
2023-05-16T20:14:02.049Z,69.60
2023-05-16T20:17:04.286Z,69.80
2023-05-16T20:20:08.925Z,70.10
2023-05-16T20:23:11.214Z,70.40
2023-05-16T20:26:15.006Z,70.10
2023-05-16T20:29:17.137Z,70.60
2023-05-16T20:32:20.201Z,71.10
2023-05-16T20:35:22.373Z,71.30
2023-05-16T20:38:26.540Z,71.10
2023-05-16T20:41:28.775Z,71.90
2023-05-16T20:44:31.033Z,71.40
2023-05-16T20:47:33.177Z,71.70
2023-05-16T20:50:36.440Z,72.20
2023-05-16T20:53:38.741Z,72.20
2023-05-16T20:56:41.130Z,72.40
2023-05-16T20:59:43.343Z,72.60
2023-05-16T21:03:02.714Z,72.70
2023-05-16T21:06:06.941Z,72.30
2023-05-16T21:09:09.365Z,72.50
2023-05-16T21:12:11.854Z,72.20
2023-05-16T21:15:13.968Z,72.00
2023-05-16T21:18:18.673Z,72.00
2023-05-16T21:21:21.838Z,71.90
2023-05-16T21:24:24.124Z,71.60
2023-05-16T21:27:26.248Z,71.60
2023-05-16T21:30:28.424Z,71.60
2023-05-16T21:33:30.617Z,71.60
2023-05-16T21:36:33.654Z,71.80
2023-05-16T21:39:36.036Z,71.60
2023-05-16T21:42:38.380Z,71.60
2023-05-16T21:45:40.856Z,71.40
2023-05-16T21:48:43.129Z,71.40
2023-05-16T21:51:45.620Z,71.10
2023-05-16T21:54:52.000Z,70.90
2023-05-16T21:57:54.564Z,70.80
2023-05-16T22:00:56.593Z,70.80
2023-05-16T22:03:59.180Z,70.20
2023-05-16T22:07:01.755Z,70.10
2023-05-16T22:10:05.438Z,70.30
2023-05-16T22:13:08.213Z,70.00
2023-05-16T22:16:11.249Z,69.90
2023-05-16T22:19:15.547Z,69.70
2023-05-16T22:22:17.580Z,70.00
2023-05-16T22:25:19.892Z,69.40
2023-05-16T22:28:22.197Z,69.30
2023-05-16T22:31:24.702Z,69.30
2023-05-16T22:34:26.947Z,69.30
2023-05-16T22:37:29.398Z,69.30
2023-05-16T22:40:31.680Z,69.00
2023-05-16T22:43:36.381Z,69.20
2023-05-16T22:46:38.746Z,69.20
2023-05-16T22:49:47.724Z,69.00
2023-05-16T22:52:50.329Z,69.00
2023-05-16T22:55:52.523Z,69.20
2023-05-16T22:58:54.833Z,69.30
2023-05-16T23:01:57.319Z,69.20
2023-05-16T23:04:59.503Z,68.80
2023-05-16T23:08:03.346Z,68.40
2023-05-16T23:11:05.951Z,68.40
2023-05-16T23:14:08.103Z,68.40
2023-05-16T23:17:10.352Z,68.30
2023-05-16T23:20:17.567Z,68.10
2023-05-16T23:23:19.685Z,67.90
2023-05-16T23:26:22.229Z,67.70
2023-05-16T23:29:24.466Z,67.50
2023-05-16T23:32:26.963Z,67.60
2023-05-16T23:35:29.633Z,67.80
2023-05-16T23:38:31.987Z,68.20
2023-05-16T23:41:34.374Z,68.40
2023-05-16T23:44:37.105Z,68.90
2023-05-16T23:47:39.876Z,69.20
2023-05-16T23:50:42.027Z,69.00
2023-05-16T23:53:44.107Z,69.40
2023-05-16T23:56:46.491Z,69.70
2023-05-16T23:59:48.710Z,69.70
